sensor_id;sensor_type;location;lat;lon;timestamp;P1;durP1;ratioP1;P2;durP2;ratioP2
16159;SDS011;8185;57.818;15.224;2022-11-23T00:01:11;19.90;;;11.83;;
16159;SDS011;8185;57.818;15.224;2022-11-23T00:03:39;15.93;;;11.23;;
16159;SDS011;8185;57.818;15.224;2022-11-23T00:06:06;15.40;;;10.87;;
16159;SDS011;8185;57.818;15.224;2022-11-23T00:08:34;17.33;;;10.97;;
16159;SDS011;8185;57.818;15.224;2022-11-23T00:11:01;14.43;;;10.27;;
16159;SDS011;8185;57.818;15.224;2022-11-23T00:13:30;16.93;;;10.47;;
16159;SDS011;8185;57.818;15.224;2022-11-23T00:15:59;13.57;;;9.83;;
16159;SDS011;8185;57.818;15.224;2022-11-23T00:18:28;14.23;;;10.87;;
16159;SDS011;8185;57.818;15.224;2022-11-23T00:20:56;13.93;;;11.03;;
16159;SDS011;8185;57.818;15.224;2022-11-23T00:23:23;13.37;;;9.93;;
16159;SDS011;8185;57.818;15.224;2022-11-23T00:25:50;15.57;;;10.37;;
16159;SDS011;8185;57.818;15.224;2022-11-23T00:28:17;14.83;;;11.00;;
16159;SDS011;8185;57.818;15.224;2022-11-23T00:30:48;14.77;;;10.93;;
16159;SDS011;8185;57.818;15.224;2022-11-23T00:33:16;12.67;;;10.83;;
16159;SDS011;8185;57.818;15.224;2022-11-23T00:35:44;15.20;;;11.47;;
16159;SDS011;8185;57.818;15.224;2022-11-23T00:38:11;15.97;;;11.47;;
16159;SDS011;8185;57.818;15.224;2022-11-23T00:40:38;14.83;;;11.90;;
16159;SDS011;8185;57.818;15.224;2022-11-23T00:43:06;17.83;;;10.80;;
16159;SDS011;8185;57.818;15.224;2022-11-23T00:45:33;16.30;;;11.57;;
16159;SDS011;8185;57.818;15.224;2022-11-23T00:48:02;16.50;;;10.70;;
16159;SDS011;8185;57.818;15.224;2022-11-23T00:50:29;15.60;;;11.70;;
16159;SDS011;8185;57.818;15.224;2022-11-23T00:52:56;15.87;;;11.33;;
16159;SDS011;8185;57.818;15.224;2022-11-23T00:55:24;14.27;;;10.60;;
16159;SDS011;8185;57.818;15.224;2022-11-23T00:57:51;13.73;;;10.80;;
16159;SDS011;8185;57.818;15.224;2022-11-23T01:00:19;14.60;;;10.90;;
16159;SDS011;8185;57.818;15.224;2022-11-23T01:02:46;13.77;;;10.60;;
16159;SDS011;8185;57.818;15.224;2022-11-23T01:05:15;18.57;;;11.63;;
16159;SDS011;8185;57.818;15.224;2022-11-23T01:07:42;15.73;;;10.87;;
16159;SDS011;8185;57.818;15.224;2022-11-23T01:10:09;15.90;;;11.17;;
16159;SDS011;8185;57.818;15.224;2022-11-23T01:12:36;16.80;;;11.70;;
16159;SDS011;8185;57.818;15.224;2022-11-23T01:15:04;14.97;;;10.53;;
16159;SDS011;8185;57.818;15.224;2022-11-23T01:17:32;13.70;;;10.40;;
16159;SDS011;8185;57.818;15.224;2022-11-23T01:19:59;17.03;;;11.10;;
16159;SDS011;8185;57.818;15.224;2022-11-23T01:22:28;12.80;;;10.70;;
16159;SDS011;8185;57.818;15.224;2022-11-23T01:24:55;19.00;;;11.30;;
16159;SDS011;8185;57.818;15.224;2022-11-23T01:27:22;13.37;;;10.80;;
16159;SDS011;8185;57.818;15.224;2022-11-23T01:29:49;14.60;;;10.87;;
16159;SDS011;8185;57.818;15.224;2022-11-23T01:32:17;15.50;;;10.37;;
16159;SDS011;8185;57.818;15.224;2022-11-23T01:34:44;15.43;;;9.90;;
16159;SDS011;8185;57.818;15.224;2022-11-23T01:37:11;12.30;;;9.73;;
16159;SDS011;8185;57.818;15.224;2022-11-23T01:39:40;14.93;;;10.73;;
16159;SDS011;8185;57.818;15.224;2022-11-23T01:42:07;15.30;;;10.80;;
16159;SDS011;8185;57.818;15.224;2022-11-23T01:44:35;15.90;;;10.77;;
16159;SDS011;8185;57.818;15.224;2022-11-23T01:47:04;15.10;;;10.73;;
16159;SDS011;8185;57.818;15.224;2022-11-23T01:49:34;14.33;;;10.27;;
16159;SDS011;8185;57.818;15.224;2022-11-23T01:52:05;14.83;;;10.00;;
16159;SDS011;8185;57.818;15.224;2022-11-23T01:54:36;12.57;;;9.47;;
16159;SDS011;8185;57.818;15.224;2022-11-23T01:57:07;13.53;;;10.40;;
16159;SDS011;8185;57.818;15.224;2022-11-23T01:59:38;15.60;;;9.97;;
16159;SDS011;8185;57.818;15.224;2022-11-23T02:02:05;13.80;;;9.63;;
16159;SDS011;8185;57.818;15.224;2022-11-23T02:04:34;12.37;;;9.83;;
16159;SDS011;8185;57.818;15.224;2022-11-23T02:07:04;13.93;;;9.87;;
16159;SDS011;8185;57.818;15.224;2022-11-23T02:09:32;10.93;;;8.63;;
16159;SDS011;8185;57.818;15.224;2022-11-23T02:12:01;11.60;;;9.87;;
16159;SDS011;8185;57.818;15.224;2022-11-23T02:14:30;11.63;;;9.17;;
16159;SDS011;8185;57.818;15.224;2022-11-23T02:16:57;12.97;;;9.17;;
16159;SDS011;8185;57.818;15.224;2022-11-23T02:19:27;13.83;;;9.63;;
16159;SDS011;8185;57.818;15.224;2022-11-23T02:22:03;11.70;;;9.27;;
16159;SDS011;8185;57.818;15.224;2022-11-23T02:24:36;9.73;;;8.73;;
16159;SDS011;8185;57.818;15.224;2022-11-23T02:27:10;10.93;;;9.23;;
16159;SDS011;8185;57.818;15.224;2022-11-23T02:29:39;11.50;;;8.07;;
16159;SDS011;8185;57.818;15.224;2022-11-23T02:32:06;9.57;;;8.27;;
16159;SDS011;8185;57.818;15.224;2022-11-23T02:34:33;10.03;;;7.63;;
16159;SDS011;8185;57.818;15.224;2022-11-23T02:37:00;10.87;;;8.43;;
16159;SDS011;8185;57.818;15.224;2022-11-23T02:39:29;9.33;;;8.33;;
16159;SDS011;8185;57.818;15.224;2022-11-23T02:41:59;9.80;;;7.93;;
16159;SDS011;8185;57.818;15.224;2022-11-23T02:44:33;10.00;;;8.07;;
16159;SDS011;8185;57.818;15.224;2022-11-23T02:47:08;8.87;;;7.37;;
16159;SDS011;8185;57.818;15.224;2022-11-23T02:49:36;9.20;;;7.07;;
16159;SDS011;8185;57.818;15.224;2022-11-23T02:52:05;8.70;;;7.50;;
16159;SDS011;8185;57.818;15.224;2022-11-23T02:54:33;9.80;;;7.20;;
16159;SDS011;8185;57.818;15.224;2022-11-23T02:57:01;9.30;;;7.13;;
16159;SDS011;8185;57.818;15.224;2022-11-23T02:59:29;9.17;;;7.63;;
16159;SDS011;8185;57.818;15.224;2022-11-23T03:01:59;8.23;;;6.70;;
16159;SDS011;8185;57.818;15.224;2022-11-23T03:04:29;7.83;;;6.30;;
16159;SDS011;8185;57.818;15.224;2022-11-23T03:06:56;7.20;;;6.23;;
16159;SDS011;8185;57.818;15.224;2022-11-23T03:09:24;9.07;;;6.97;;
16159;SDS011;8185;57.818;15.224;2022-11-23T03:11:52;7.77;;;6.70;;
16159;SDS011;8185;57.818;15.224;2022-11-23T03:14:20;7.37;;;6.03;;
16159;SDS011;8185;57.818;15.224;2022-11-23T03:16:47;7.93;;;6.10;;
16159;SDS011;8185;57.818;15.224;2022-11-23T03:19:16;7.20;;;6.20;;
16159;SDS011;8185;57.818;15.224;2022-11-23T03:21:43;8.07;;;5.63;;
16159;SDS011;8185;57.818;15.224;2022-11-23T03:24:10;6.40;;;5.63;;
16159;SDS011;8185;57.818;15.224;2022-11-23T03:26:37;6.03;;;5.40;;
16159;SDS011;8185;57.818;15.224;2022-11-23T03:29:04;6.30;;;5.70;;
16159;SDS011;8185;57.818;15.224;2022-11-23T03:31:32;6.83;;;5.60;;
16159;SDS011;8185;57.818;15.224;2022-11-23T03:33:59;6.70;;;5.43;;
16159;SDS011;8185;57.818;15.224;2022-11-23T03:36:28;7.37;;;5.50;;
16159;SDS011;8185;57.818;15.224;2022-11-23T03:38:55;5.63;;;5.03;;
16159;SDS011;8185;57.818;15.224;2022-11-23T03:41:22;7.97;;;5.20;;
16159;SDS011;8185;57.818;15.224;2022-11-23T03:43:50;7.40;;;4.97;;
16159;SDS011;8185;57.818;15.224;2022-11-23T03:46:17;5.47;;;4.57;;
16159;SDS011;8185;57.818;15.224;2022-11-23T03:48:44;5.67;;;4.60;;
16159;SDS011;8185;57.818;15.224;2022-11-23T03:51:11;5.80;;;5.20;;
16159;SDS011;8185;57.818;15.224;2022-11-23T03:53:40;7.97;;;5.43;;
16159;SDS011;8185;57.818;15.224;2022-11-23T03:56:07;8.00;;;5.50;;
16159;SDS011;8185;57.818;15.224;2022-11-23T03:58:35;6.20;;;5.20;;
16159;SDS011;8185;57.818;15.224;2022-11-23T04:01:02;5.73;;;4.60;;
16159;SDS011;8185;57.818;15.224;2022-11-23T04:03:30;8.33;;;4.87;;
16159;SDS011;8185;57.818;15.224;2022-11-23T04:05:57;5.50;;;4.80;;
16159;SDS011;8185;57.818;15.224;2022-11-23T04:08:24;6.67;;;4.90;;
16159;SDS011;8185;57.818;15.224;2022-11-23T04:10:56;6.33;;;5.23;;
16159;SDS011;8185;57.818;15.224;2022-11-23T04:13:24;5.20;;;4.70;;
16159;SDS011;8185;57.818;15.224;2022-11-23T04:15:51;6.23;;;4.97;;
16159;SDS011;8185;57.818;15.224;2022-11-23T04:18:18;5.40;;;4.37;;
16159;SDS011;8185;57.818;15.224;2022-11-23T04:20:46;7.73;;;5.03;;
16159;SDS011;8185;57.818;15.224;2022-11-23T04:23:13;5.83;;;5.30;;
16159;SDS011;8185;57.818;15.224;2022-11-23T04:25:40;6.50;;;5.47;;
16159;SDS011;8185;57.818;15.224;2022-11-23T04:28:09;9.37;;;5.47;;
16159;SDS011;8185;57.818;15.224;2022-11-23T04:30:36;6.07;;;5.43;;
16159;SDS011;8185;57.818;15.224;2022-11-23T04:33:04;6.57;;;5.87;;
16159;SDS011;8185;57.818;15.224;2022-11-23T04:35:31;8.33;;;5.30;;
16159;SDS011;8185;57.818;15.224;2022-11-23T04:37:59;6.23;;;5.50;;
16159;SDS011;8185;57.818;15.224;2022-11-23T04:40:26;7.40;;;6.17;;
16159;SDS011;8185;57.818;15.224;2022-11-23T04:42:56;6.70;;;5.33;;
16159;SDS011;8185;57.818;15.224;2022-11-23T04:45:25;7.50;;;5.30;;
16159;SDS011;8185;57.818;15.224;2022-11-23T04:47:52;8.50;;;5.60;;
16159;SDS011;8185;57.818;15.224;2022-11-23T04:50:19;6.07;;;5.47;;
16159;SDS011;8185;57.818;15.224;2022-11-23T04:52:46;6.47;;;5.63;;
16159;SDS011;8185;57.818;15.224;2022-11-23T04:55:14;9.50;;;5.80;;
16159;SDS011;8185;57.818;15.224;2022-11-23T04:57:41;7.77;;;5.87;;
16159;SDS011;8185;57.818;15.224;2022-11-23T05:00:09;6.20;;;5.17;;
16159;SDS011;8185;57.818;15.224;2022-11-23T05:02:38;6.20;;;5.57;;
16159;SDS011;8185;57.818;15.224;2022-11-23T05:05:06;6.53;;;5.87;;
16159;SDS011;8185;57.818;15.224;2022-11-23T05:07:34;7.57;;;5.23;;
16159;SDS011;8185;57.818;15.224;2022-11-23T05:10:02;8.07;;;5.73;;
16159;SDS011;8185;57.818;15.224;2022-11-23T05:12:30;6.60;;;5.70;;
16159;SDS011;8185;57.818;15.224;2022-11-23T05:14:57;6.93;;;5.60;;
16159;SDS011;8185;57.818;15.224;2022-11-23T05:17:24;9.50;;;6.67;;
16159;SDS011;8185;57.818;15.224;2022-11-23T05:19:53;8.27;;;6.40;;
16159;SDS011;8185;57.818;15.224;2022-11-23T05:22:21;8.20;;;6.17;;
16159;SDS011;8185;57.818;15.224;2022-11-23T05:24:48;10.73;;;6.30;;
16159;SDS011;8185;57.818;15.224;2022-11-23T05:27:15;7.07;;;6.37;;
16159;SDS011;8185;57.818;15.224;2022-11-23T05:29:43;8.77;;;6.10;;
16159;SDS011;8185;57.818;15.224;2022-11-23T05:32:10;8.40;;;6.87;;
16159;SDS011;8185;57.818;15.224;2022-11-23T05:34:37;6.93;;;5.60;;
16159;SDS011;8185;57.818;15.224;2022-11-23T05:37:06;8.23;;;6.63;;
16159;SDS011;8185;57.818;15.224;2022-11-23T05:39:33;6.53;;;5.87;;
16159;SDS011;8185;57.818;15.224;2022-11-23T05:42:00;8.20;;;5.50;;
16159;SDS011;8185;57.818;15.224;2022-11-23T05:44:28;7.03;;;6.20;;
16159;SDS011;8185;57.818;15.224;2022-11-23T05:46:55;7.70;;;5.60;;
16159;SDS011;8185;57.818;15.224;2022-11-23T05:49:22;6.73;;;5.50;;
16159;SDS011;8185;57.818;15.224;2022-11-23T05:51:50;7.67;;;5.87;;
16159;SDS011;8185;57.818;15.224;2022-11-23T05:54:19;6.47;;;5.30;;
16159;SDS011;8185;57.818;15.224;2022-11-23T05:56:48;6.43;;;5.20;;
16159;SDS011;8185;57.818;15.224;2022-11-23T05:59:15;5.93;;;5.03;;
16159;SDS011;8185;57.818;15.224;2022-11-23T06:01:42;6.30;;;5.70;;
16159;SDS011;8185;57.818;15.224;2022-11-23T06:04:10;6.57;;;5.63;;
16159;SDS011;8185;57.818;15.224;2022-11-23T06:06:37;6.13;;;5.53;;
16159;SDS011;8185;57.818;15.224;2022-11-23T06:09:04;6.47;;;5.33;;
16159;SDS011;8185;57.818;15.224;2022-11-23T06:11:33;8.50;;;5.30;;
16159;SDS011;8185;57.818;15.224;2022-11-23T06:14:00;8.23;;;5.87;;
16159;SDS011;8185;57.818;15.224;2022-11-23T06:16:28;7.07;;;5.27;;
16159;SDS011;8185;57.818;15.224;2022-11-23T06:18:55;8.93;;;5.70;;
16159;SDS011;8185;57.818;15.224;2022-11-23T06:21:22;7.87;;;5.60;;
16159;SDS011;8185;57.818;15.224;2022-11-23T06:23:49;7.63;;;5.00;;
16159;SDS011;8185;57.818;15.224;2022-11-23T06:26:17;5.40;;;4.90;;
16159;SDS011;8185;57.818;15.224;2022-11-23T06:28:46;5.73;;;4.77;;
16159;SDS011;8185;57.818;15.224;2022-11-23T06:31:13;5.73;;;5.13;;
16159;SDS011;8185;57.818;15.224;2022-11-23T06:33:41;5.63;;;5.03;;
16159;SDS011;8185;57.818;15.224;2022-11-23T06:36:09;7.13;;;5.20;;
16159;SDS011;8185;57.818;15.224;2022-11-23T06:38:37;6.30;;;4.73;;
16159;SDS011;8185;57.818;15.224;2022-11-23T06:41:04;5.90;;;5.03;;
16159;SDS011;8185;57.818;15.224;2022-11-23T06:43:32;5.97;;;5.37;;
16159;SDS011;8185;57.818;15.224;2022-11-23T06:46:01;5.77;;;4.87;;
16159;SDS011;8185;57.818;15.224;2022-11-23T06:48:30;5.90;;;4.83;;
16159;SDS011;8185;57.818;15.224;2022-11-23T06:50:58;5.73;;;5.03;;
16159;SDS011;8185;57.818;15.224;2022-11-23T06:53:27;7.10;;;4.73;;
16159;SDS011;8185;57.818;15.224;2022-11-23T06:55:56;5.80;;;4.97;;
16159;SDS011;8185;57.818;15.224;2022-11-23T06:58:25;5.57;;;5.07;;
16159;SDS011;8185;57.818;15.224;2022-11-23T07:00:52;5.60;;;5.03;;
16159;SDS011;8185;57.818;15.224;2022-11-23T07:03:22;5.03;;;4.53;;
16159;SDS011;8185;57.818;15.224;2022-11-23T07:05:50;4.80;;;4.30;;
16159;SDS011;8185;57.818;15.224;2022-11-23T07:08:17;5.00;;;4.50;;
16159;SDS011;8185;57.818;15.224;2022-11-23T07:10:45;5.47;;;4.37;;
16159;SDS011;8185;57.818;15.224;2022-11-23T07:13:12;5.67;;;4.83;;
16159;SDS011;8185;57.818;15.224;2022-11-23T07:15:40;4.43;;;4.03;;
16159;SDS011;8185;57.818;15.224;2022-11-23T07:18:08;4.90;;;4.10;;
16159;SDS011;8185;57.818;15.224;2022-11-23T07:20:37;5.10;;;4.67;;
16159;SDS011;8185;57.818;15.224;2022-11-23T07:23:05;4.33;;;3.93;;
16159;SDS011;8185;57.818;15.224;2022-11-23T07:25:34;5.07;;;4.57;;
16159;SDS011;8185;57.818;15.224;2022-11-23T07:28:03;4.13;;;3.73;;
16159;SDS011;8185;57.818;15.224;2022-11-23T07:30:32;4.83;;;3.63;;
16159;SDS011;8185;57.818;15.224;2022-11-23T07:33:00;3.77;;;3.10;;
16159;SDS011;8185;57.818;15.224;2022-11-23T07:35:29;4.07;;;3.30;;
16159;SDS011;8185;57.818;15.224;2022-11-23T07:37:58;4.17;;;3.77;;
16159;SDS011;8185;57.818;15.224;2022-11-23T07:40:26;3.67;;;3.37;;
16159;SDS011;8185;57.818;15.224;2022-11-23T07:42:57;3.77;;;3.47;;
16159;SDS011;8185;57.818;15.224;2022-11-23T07:45:26;3.70;;;3.40;;
16159;SDS011;8185;57.818;15.224;2022-11-23T07:47:56;5.13;;;3.67;;
16159;SDS011;8185;57.818;15.224;2022-11-23T07:50:24;5.33;;;3.97;;
16159;SDS011;8185;57.818;15.224;2022-11-23T07:52:52;4.23;;;3.83;;
16159;SDS011;8185;57.818;15.224;2022-11-23T07:55:20;3.97;;;3.40;;
16159;SDS011;8185;57.818;15.224;2022-11-23T07:57:50;4.90;;;3.60;;
16159;SDS011;8185;57.818;15.224;2022-11-23T08:00:19;4.33;;;3.60;;
16159;SDS011;8185;57.818;15.224;2022-11-23T08:02:46;3.40;;;3.10;;
16159;SDS011;8185;57.818;15.224;2022-11-23T08:05:14;4.40;;;4.00;;
16159;SDS011;8185;57.818;15.224;2022-11-23T08:07:42;4.27;;;3.53;;
16159;SDS011;8185;57.818;15.224;2022-11-23T08:10:10;4.17;;;3.77;;
16159;SDS011;8185;57.818;15.224;2022-11-23T08:12:39;4.00;;;3.60;;
16159;SDS011;8185;57.818;15.224;2022-11-23T08:15:07;4.97;;;3.83;;
16159;SDS011;8185;57.818;15.224;2022-11-23T08:17:35;4.10;;;3.70;;
16159;SDS011;8185;57.818;15.224;2022-11-23T08:20:02;4.00;;;3.60;;
16159;SDS011;8185;57.818;15.224;2022-11-23T08:22:30;5.30;;;3.87;;
16159;SDS011;8185;57.818;15.224;2022-11-23T08:24:57;4.03;;;3.63;;
16159;SDS011;8185;57.818;15.224;2022-11-23T08:27:24;4.07;;;3.53;;
16159;SDS011;8185;57.818;15.224;2022-11-23T08:29:53;3.80;;;3.50;;
16159;SDS011;8185;57.818;15.224;2022-11-23T08:32:20;4.53;;;3.70;;
16159;SDS011;8185;57.818;15.224;2022-11-23T08:34:48;5.03;;;3.80;;
16159;SDS011;8185;57.818;15.224;2022-11-23T08:37:15;4.40;;;3.97;;
16159;SDS011;8185;57.818;15.224;2022-11-23T08:39:42;6.57;;;3.93;;
16159;SDS011;8185;57.818;15.224;2022-11-23T08:42:10;6.10;;;4.10;;
16159;SDS011;8185;57.818;15.224;2022-11-23T08:44:37;6.07;;;4.50;;
16159;SDS011;8185;57.818;15.224;2022-11-23T08:47:06;5.77;;;4.50;;
16159;SDS011;8185;57.818;15.224;2022-11-23T08:49:33;5.30;;;4.57;;
16159;SDS011;8185;57.818;15.224;2022-11-23T08:52:00;5.63;;;4.87;;
16159;SDS011;8185;57.818;15.224;2022-11-23T08:54:28;5.50;;;4.87;;
16159;SDS011;8185;57.818;15.224;2022-11-23T08:56:56;5.90;;;5.30;;
16159;SDS011;8185;57.818;15.224;2022-11-23T08:59:24;6.77;;;5.20;;
16159;SDS011;8185;57.818;15.224;2022-11-23T09:01:51;5.70;;;5.03;;
16159;SDS011;8185;57.818;15.224;2022-11-23T09:04:20;6.03;;;5.03;;
16159;SDS011;8185;57.818;15.224;2022-11-23T09:06:47;6.20;;;5.60;;
16159;SDS011;8185;57.818;15.224;2022-11-23T09:09:14;5.73;;;5.13;;
16159;SDS011;8185;57.818;15.224;2022-11-23T09:11:41;6.90;;;5.10;;
16159;SDS011;8185;57.818;15.224;2022-11-23T09:14:08;6.47;;;5.30;;
16159;SDS011;8185;57.818;15.224;2022-11-23T09:16:36;6.70;;;5.50;;
16159;SDS011;8185;57.818;15.224;2022-11-23T09:19:03;7.97;;;5.57;;
16159;SDS011;8185;57.818;15.224;2022-11-23T09:21:33;8.30;;;6.30;;
16159;SDS011;8185;57.818;15.224;2022-11-23T09:24:03;8.07;;;5.87;;
16159;SDS011;8185;57.818;15.224;2022-11-23T09:26:31;6.90;;;6.17;;
16159;SDS011;8185;57.818;15.224;2022-11-23T09:28:58;10.33;;;6.73;;
16159;SDS011;8185;57.818;15.224;2022-11-23T09:31:26;6.40;;;5.67;;
16159;SDS011;8185;57.818;15.224;2022-11-23T09:33:53;7.87;;;5.27;;
16159;SDS011;8185;57.818;15.224;2022-11-23T09:36:20;6.90;;;5.33;;
16159;SDS011;8185;57.818;15.224;2022-11-23T09:38:49;6.03;;;4.70;;
16159;SDS011;8185;57.818;15.224;2022-11-23T09:41:25;6.60;;;5.83;;
16159;SDS011;8185;57.818;15.224;2022-11-23T09:44:10;6.97;;;5.60;;
16159;SDS011;8185;57.818;15.224;2022-11-23T09:46:47;5.87;;;4.90;;
16159;SDS011;8185;57.818;15.224;2022-11-23T09:49:31;5.37;;;4.87;;
16159;SDS011;8185;57.818;15.224;2022-11-23T09:52:06;5.03;;;4.63;;
16159;SDS011;8185;57.818;15.224;2022-11-23T09:54:41;5.83;;;5.23;;
16159;SDS011;8185;57.818;15.224;2022-11-23T09:57:11;5.63;;;5.03;;
16159;SDS011;8185;57.818;15.224;2022-11-23T09:59:46;6.00;;;5.40;;
16159;SDS011;8185;57.818;15.224;2022-11-23T10:02:19;5.50;;;4.77;;
16159;SDS011;8185;57.818;15.224;2022-11-23T10:04:48;4.97;;;4.40;;
16159;SDS011;8185;57.818;15.224;2022-11-23T10:07:23;4.80;;;3.77;;
16159;SDS011;8185;57.818;15.224;2022-11-23T10:10:04;5.23;;;3.67;;
16159;SDS011;8185;57.818;15.224;2022-11-23T10:12:41;4.10;;;3.70;;
16159;SDS011;8185;57.818;15.224;2022-11-23T10:15:17;5.57;;;4.20;;
16159;SDS011;8185;57.818;15.224;2022-11-23T10:18:01;4.63;;;3.80;;
16159;SDS011;8185;57.818;15.224;2022-11-23T10:20:49;3.70;;;3.20;;
16159;SDS011;8185;57.818;15.224;2022-11-23T10:23:26;5.53;;;3.90;;
16159;SDS011;8185;57.818;15.224;2022-11-23T10:26:06;4.23;;;3.70;;
16159;SDS011;8185;57.818;15.224;2022-11-23T10:28:38;4.23;;;3.90;;
16159;SDS011;8185;57.818;15.224;2022-11-23T10:31:09;4.50;;;3.97;;
16159;SDS011;8185;57.818;15.224;2022-11-23T10:33:41;4.10;;;3.70;;
16159;SDS011;8185;57.818;15.224;2022-11-23T10:36:15;4.50;;;4.10;;
16159;SDS011;8185;57.818;15.224;2022-11-23T10:38:42;4.40;;;4.00;;
16159;SDS011;8185;57.818;15.224;2022-11-23T10:41:13;4.20;;;3.67;;
16159;SDS011;8185;57.818;15.224;2022-11-23T10:43:42;4.83;;;4.17;;
16159;SDS011;8185;57.818;15.224;2022-11-23T10:46:23;4.83;;;4.17;;
16159;SDS011;8185;57.818;15.224;2022-11-23T10:49:06;5.10;;;3.87;;
16159;SDS011;8185;57.818;15.224;2022-11-23T10:51:36;4.17;;;3.70;;
16159;SDS011;8185;57.818;15.224;2022-11-23T10:54:04;5.23;;;4.20;;
16159;SDS011;8185;57.818;15.224;2022-11-23T10:56:46;4.43;;;4.03;;
16159;SDS011;8185;57.818;15.224;2022-11-23T10:59:24;4.83;;;4.43;;
16159;SDS011;8185;57.818;15.224;2022-11-23T11:04:48;4.73;;;3.90;;
16159;SDS011;8185;57.818;15.224;2022-11-23T11:07:17;4.73;;;4.33;;
16159;SDS011;8185;57.818;15.224;2022-11-23T11:09:53;4.70;;;4.27;;
16159;SDS011;8185;57.818;15.224;2022-11-23T11:12:23;4.83;;;4.40;;
16159;SDS011;8185;57.818;15.224;2022-11-23T11:14:59;4.70;;;3.87;;
16159;SDS011;8185;57.818;15.224;2022-11-23T11:17:31;5.27;;;4.77;;
16159;SDS011;8185;57.818;15.224;2022-11-23T11:20:06;5.43;;;4.00;;
16159;SDS011;8185;57.818;15.224;2022-11-23T11:22:56;4.67;;;4.20;;
16159;SDS011;8185;57.818;15.224;2022-11-23T11:25:26;4.93;;;4.53;;
16159;SDS011;8185;57.818;15.224;2022-11-23T11:27:57;4.63;;;4.23;;
16159;SDS011;8185;57.818;15.224;2022-11-23T11:30:27;5.40;;;4.00;;
16159;SDS011;8185;57.818;15.224;2022-11-23T11:33:03;5.10;;;4.60;;
16159;SDS011;8185;57.818;15.224;2022-11-23T11:35:36;5.60;;;4.50;;
16159;SDS011;8185;57.818;15.224;2022-11-23T11:38:10;5.13;;;4.63;;
16159;SDS011;8185;57.818;15.224;2022-11-23T11:40:44;4.90;;;4.40;;
16159;SDS011;8185;57.818;15.224;2022-11-23T11:43:15;4.90;;;4.37;;
16159;SDS011;8185;57.818;15.224;2022-11-23T11:45:47;4.87;;;4.40;;
16159;SDS011;8185;57.818;15.224;2022-11-23T11:48:18;5.37;;;4.07;;
16159;SDS011;8185;57.818;15.224;2022-11-23T11:50:49;4.10;;;3.73;;
16159;SDS011;8185;57.818;15.224;2022-11-23T11:53:20;4.30;;;3.90;;
16159;SDS011;8185;57.818;15.224;2022-11-23T11:55:51;4.93;;;4.43;;
16159;SDS011;8185;57.818;15.224;2022-11-23T11:58:24;4.43;;;4.03;;
16159;SDS011;8185;57.818;15.224;2022-11-23T12:00:53;3.40;;;3.10;;
16159;SDS011;8185;57.818;15.224;2022-11-23T12:03:26;4.07;;;3.73;;
16159;SDS011;8185;57.818;15.224;2022-11-23T12:06:07;3.67;;;3.37;;
16159;SDS011;8185;57.818;15.224;2022-11-23T12:08:40;4.40;;;4.00;;
16159;SDS011;8185;57.818;15.224;2022-11-23T12:11:16;5.07;;;4.17;;
16159;SDS011;8185;57.818;15.224;2022-11-23T12:13:45;3.70;;;3.37;;
16159;SDS011;8185;57.818;15.224;2022-11-23T12:16:15;6.33;;;4.00;;
16159;SDS011;8185;57.818;15.224;2022-11-23T12:18:56;4.20;;;3.73;;
16159;SDS011;8185;57.818;15.224;2022-11-23T12:21:40;4.07;;;3.67;;
16159;SDS011;8185;57.818;15.224;2022-11-23T12:24:19;4.40;;;4.00;;
16159;SDS011;8185;57.818;15.224;2022-11-23T12:27:00;5.50;;;4.23;;
16159;SDS011;8185;57.818;15.224;2022-11-23T12:29:43;4.87;;;3.70;;
16159;SDS011;8185;57.818;15.224;2022-11-23T12:32:20;4.33;;;3.83;;
16159;SDS011;8185;57.818;15.224;2022-11-23T12:35:07;3.60;;;3.30;;
16159;SDS011;8185;57.818;15.224;2022-11-23T12:37:49;4.47;;;4.07;;
16159;SDS011;8185;57.818;15.224;2022-11-23T12:40:28;5.10;;;4.00;;
16159;SDS011;8185;57.818;15.224;2022-11-23T12:43:10;5.23;;;4.47;;
16159;SDS011;8185;57.818;15.224;2022-11-23T12:45:48;4.77;;;4.27;;
16159;SDS011;8185;57.818;15.224;2022-11-23T12:48:29;5.27;;;4.37;;
16159;SDS011;8185;57.818;15.224;2022-11-23T12:51:06;4.93;;;4.00;;
16159;SDS011;8185;57.818;15.224;2022-11-23T12:53:48;4.33;;;3.93;;
16159;SDS011;8185;57.818;15.224;2022-11-23T12:56:28;4.20;;;3.73;;
16159;SDS011;8185;57.818;15.224;2022-11-23T12:59:10;5.30;;;4.30;;
16159;SDS011;8185;57.818;15.224;2022-11-23T13:01:40;5.23;;;4.00;;
16159;SDS011;8185;57.818;15.224;2022-11-23T13:04:20;5.40;;;4.37;;
16159;SDS011;8185;57.818;15.224;2022-11-23T13:13:15;4.93;;;4.03;;
16159;SDS011;8185;57.818;15.224;2022-11-23T13:16:16;5.27;;;4.00;;
16159;SDS011;8185;57.818;15.224;2022-11-23T13:19:18;6.73;;;4.57;;
16159;SDS011;8185;57.818;15.224;2022-11-23T13:22:03;5.20;;;4.07;;
16159;SDS011;8185;57.818;15.224;2022-11-23T13:24:33;4.70;;;4.30;;
16159;SDS011;8185;57.818;15.224;2022-11-23T13:29:56;6.57;;;4.77;;
16159;SDS011;8185;57.818;15.224;2022-11-23T13:32:40;5.30;;;4.27;;
16159;SDS011;8185;57.818;15.224;2022-11-23T13:35:48;5.00;;;4.43;;
16159;SDS011;8185;57.818;15.224;2022-11-23T13:38:24;6.13;;;4.97;;
16159;SDS011;8185;57.818;15.224;2022-11-23T13:44:21;5.00;;;4.50;;
16159;SDS011;8185;57.818;15.224;2022-11-23T13:47:01;4.77;;;4.20;;
16159;SDS011;8185;57.818;15.224;2022-11-23T13:49:44;4.30;;;3.90;;
16159;SDS011;8185;57.818;15.224;2022-11-23T13:52:27;5.30;;;4.80;;
16159;SDS011;8185;57.818;15.224;2022-11-23T13:54:58;5.30;;;4.80;;
16159;SDS011;8185;57.818;15.224;2022-11-23T13:57:33;4.77;;;4.27;;
16159;SDS011;8185;57.818;15.224;2022-11-23T14:06:05;4.90;;;4.50;;
16159;SDS011;8185;57.818;15.224;2022-11-23T14:08:38;6.87;;;4.77;;
16159;SDS011;8185;57.818;15.224;2022-11-23T14:11:09;4.70;;;4.20;;
16159;SDS011;8185;57.818;15.224;2022-11-23T14:13:38;4.80;;;4.30;;
16159;SDS011;8185;57.818;15.224;2022-11-23T14:16:08;4.47;;;4.07;;
16159;SDS011;8185;57.818;15.224;2022-11-23T14:18:44;5.43;;;4.33;;
16159;SDS011;8185;57.818;15.224;2022-11-23T14:21:30;5.00;;;4.50;;
16159;SDS011;8185;57.818;15.224;2022-11-23T14:24:13;5.77;;;4.97;;
16159;SDS011;8185;57.818;15.224;2022-11-23T14:27:05;5.37;;;4.80;;
16159;SDS011;8185;57.818;15.224;2022-11-23T14:32:55;7.00;;;5.00;;
16159;SDS011;8185;57.818;15.224;2022-11-23T14:35:37;5.57;;;5.07;;
16159;SDS011;8185;57.818;15.224;2022-11-23T14:38:23;4.83;;;4.03;;
16159;SDS011;8185;57.818;15.224;2022-11-23T14:41:03;6.07;;;5.07;;
16159;SDS011;8185;57.818;15.224;2022-11-23T14:43:34;5.27;;;4.43;;
16159;SDS011;8185;57.818;15.224;2022-11-23T14:46:13;5.30;;;4.80;;
16159;SDS011;8185;57.818;15.224;2022-11-23T14:48:43;4.93;;;4.43;;
16159;SDS011;8185;57.818;15.224;2022-11-23T14:51:12;6.33;;;4.23;;
16159;SDS011;8185;57.818;15.224;2022-11-23T14:53:42;5.53;;;4.50;;
16159;SDS011;8185;57.818;15.224;2022-11-23T14:56:30;5.10;;;4.60;;
16159;SDS011;8185;57.818;15.224;2022-11-23T14:59:00;4.53;;;4.10;;
16159;SDS011;8185;57.818;15.224;2022-11-23T15:01:30;5.53;;;4.40;;
16159;SDS011;8185;57.818;15.224;2022-11-23T15:03:59;5.20;;;4.70;;
16159;SDS011;8185;57.818;15.224;2022-11-23T15:06:34;5.90;;;4.30;;
16159;SDS011;8185;57.818;15.224;2022-11-23T15:09:06;4.73;;;4.23;;
16159;SDS011;8185;57.818;15.224;2022-11-23T15:11:42;5.80;;;4.33;;
16159;SDS011;8185;57.818;15.224;2022-11-23T15:14:18;6.17;;;3.83;;
16159;SDS011;8185;57.818;15.224;2022-11-23T15:16:46;5.63;;;4.57;;
16159;SDS011;8185;57.818;15.224;2022-11-23T15:19:17;4.80;;;3.73;;
16159;SDS011;8185;57.818;15.224;2022-11-23T15:21:45;4.70;;;3.87;;
16159;SDS011;8185;57.818;15.224;2022-11-23T15:24:19;4.67;;;4.27;;
16159;SDS011;8185;57.818;15.224;2022-11-23T15:26:49;6.53;;;4.70;;
16159;SDS011;8185;57.818;15.224;2022-11-23T15:29:27;4.40;;;4.00;;